Observations for SAINT-BRIEUC ARMOR, France (LFRT)

LFRT 182100Z AUTO 10007KT CAVOK 04/00 Q1018 
LFRT 182030Z AUTO 11007KT CAVOK 04/01 Q1018 
LFRT 182000Z AUTO 10008KT 070V130 CAVOK 05/01 Q1018 
LFRT 181930Z AUTO 11007KT 070V140 CAVOK 05/01 Q1018 
LFRT 181900Z AUTO 11007KT 070V140 CAVOK 05/02 Q1018 
LFRT 181830Z AUTO 10006KT CAVOK 06/02 Q1018 
LFRT 181800Z AUTO 10006KT 060V130 CAVOK 06/02 Q1018 
LFRT 181730Z AUTO 08009KT 060V130 CAVOK 06/02 Q1018 
LFRT 181700Z AUTO 09009KT 050V110 CAVOK 07/02 Q1018 
LFRT 181630Z AUTO 09006KT 050V120 CAVOK 06/02 Q1018 
LFRT 181600Z AUTO 08008KT CAVOK 07/02 Q1018 
LFRT 181530Z AUTO 08010KT 060V120 CAVOK 07/02 Q1018 
LFRT 181500Z AUTO 08009KT 050V110 CAVOK 08/03 Q1018 
LFRT 181430Z AUTO 08009KT 060V120 CAVOK 08/03 Q1018 
LFRT 181400Z AUTO 07011KT 9999 FEW020 08/04 Q1018   
LFRT 181330Z AUTO 07011KT CAVOK 08/03 Q1018 
LFRT 181300Z AUTO 06011KT CAVOK 08/03 Q1018 
LFRT 181230Z AUTO 08007KT 050V130 CAVOK 08/03 Q1019 
LFRT 181200Z AUTO 09005KT 050V130 CAVOK 07/02 Q1019 
LFRT 181130Z AUTO 09008KT 050V120 CAVOK 07/02 Q1020 
LFRT 181100Z AUTO 09007KT 050V120 CAVOK 07/03 Q1020 
LFRT 181030Z AUTO 08006KT 050V130 CAVOK 06/02 Q1020 
LFRT 181000Z AUTO 12004KT 080V170 CAVOK 06/02 Q1020 
LFRT 180930Z AUTO 11005KT 070V160 CAVOK 05/02 Q1020 
LFRT 180900Z AUTO 10005KT 060V130 CAVOK 05/02 Q1020 
LFRT 180830Z AUTO 09006KT 050V130 CAVOK 04/02 Q1020 
LFRT 180800Z AUTO 09005KT 060V130 8000 NSC 03/02 Q1020  
LFRT 180730Z AUTO 11005KT 8000 NSC 02/01 Q1020  
LFRT 180700Z AUTO 10003KT 080V140 7000 NSC 02/01 Q1020  
LFRT 172200Z AUTO 12008KT 4800 BR BKN010 03/02 Q1019
LFRT 172130Z AUTO 11010KT 070V140 5000 BR BKN012 04/03 Q1019
LFRT 172100Z AUTO 11007KT 080V140 5000 BR BKN015 04/03 Q1019
LFRT 172030Z AUTO 10008KT 6000 BKN017 05/04 Q1019